sensor_id;sensor_type;location;lat;lon;timestamp;pressure;altitude;pressure_sealevel;temperature;humidity
72055;BME280;59936;51.490;5.436;2024-02-21T00:00:21;102116.25;;;8.43;85.58
72055;BME280;59936;51.490;5.436;2024-02-21T00:02:48;102107.72;;;8.26;86.63
72055;BME280;59936;51.490;5.436;2024-02-21T00:05:15;102103.13;;;8.17;86.71
72055;BME280;59936;51.490;5.436;2024-02-21T00:07:42;102110.53;;;8.14;87.18
72055;BME280;59936;51.490;5.436;2024-02-21T00:10:09;102111.38;;;8.14;87.47
72055;BME280;59936;51.490;5.436;2024-02-21T00:12:35;102116.47;;;8.17;87.17
72055;BME280;59936;51.490;5.436;2024-02-21T00:15:02;102116.13;;;8.22;87.10
72055;BME280;59936;51.490;5.436;2024-02-21T00:17:29;102115.50;;;8.18;87.41
72055;BME280;59936;51.490;5.436;2024-02-21T00:19:56;102114.16;;;8.13;87.40
72055;BME280;59936;51.490;5.436;2024-02-21T00:22:23;102118.06;;;8.20;86.86
72055;BME280;59936;51.490;5.436;2024-02-21T00:24:50;102118.06;;;8.20;86.86
72055;BME280;59936;51.490;5.436;2024-02-21T00:27:16;102106.97;;;8.24;87.06
72055;BME280;59936;51.490;5.436;2024-02-21T00:29:43;102101.50;;;8.26;86.63
72055;BME280;59936;51.490;5.436;2024-02-21T00:32:10;102108.56;;;8.27;86.42
72055;BME280;59936;51.490;5.436;2024-02-21T00:34:37;102093.03;;;8.32;86.47
72055;BME280;59936;51.490;5.436;2024-02-21T00:37:04;102091.91;;;8.23;86.59
72055;BME280;59936;51.490;5.436;2024-02-21T00:39:30;102086.72;;;8.11;86.80
72055;BME280;59936;51.490;5.436;2024-02-21T00:41:57;102071.91;;;7.96;88.05
72055;BME280;59936;51.490;5.436;2024-02-21T00:44:24;102064.41;;;8.01;87.98
72055;BME280;59936;51.490;5.436;2024-02-21T00:46:51;102059.66;;;7.93;88.15
72055;BME280;59936;51.490;5.436;2024-02-21T00:49:18;102062.19;;;7.83;88.17
72055;BME280;59936;51.490;5.436;2024-02-21T00:51:45;102052.97;;;7.87;87.99
72055;BME280;59936;51.490;5.436;2024-02-21T00:54:11;102049.34;;;7.77;88.86
72055;BME280;59936;51.490;5.436;2024-02-21T00:56:38;102041.31;;;7.66;89.51
72055;BME280;59936;51.490;5.436;2024-02-21T00:59:05;102048.25;;;7.69;88.62
72055;BME280;59936;51.490;5.436;2024-02-21T01:01:32;102042.78;;;7.70;89.05
72055;BME280;59936;51.490;5.436;2024-02-21T01:07:39;102060.38;;;7.84;88.87
72055;BME280;59936;51.490;5.436;2024-02-21T01:10:07;102060.38;;;7.84;88.87
72055;BME280;59936;51.490;5.436;2024-02-21T01:12:34;102051.41;;;7.96;87.95
72055;BME280;59936;51.490;5.436;2024-02-21T01:15:01;102053.97;;;7.98;87.86
72055;BME280;59936;51.490;5.436;2024-02-21T01:17:28;102045.09;;;7.97;87.79
72055;BME280;59936;51.490;5.436;2024-02-21T01:19:55;102032.06;;;8.04;87.26
72055;BME280;59936;51.490;5.436;2024-02-21T01:22:22;102027.50;;;7.95;87.53
72055;BME280;59936;51.490;5.436;2024-02-21T01:24:49;102019.47;;;7.95;87.54
72055;BME280;59936;51.490;5.436;2024-02-21T01:27:16;102013.66;;;8.01;87.30
72055;BME280;59936;51.490;5.436;2024-02-21T01:29:42;102007.78;;;8.07;86.88
72055;BME280;59936;51.490;5.436;2024-02-21T01:32:09;102002.56;;;8.05;86.83
72055;BME280;59936;51.490;5.436;2024-02-21T01:34:36;102011.09;;;7.99;86.89
72055;BME280;59936;51.490;5.436;2024-02-21T01:37:03;102015.31;;;8.02;86.70
72055;BME280;59936;51.490;5.436;2024-02-21T01:39:30;102012.53;;;8.14;86.55
72055;BME280;59936;51.490;5.436;2024-02-21T01:41:57;102015.31;;;8.13;86.35
72055;BME280;59936;51.490;5.436;2024-02-21T01:44:24;102013.50;;;8.13;86.23
72055;BME280;59936;51.490;5.436;2024-02-21T01:46:52;102010.09;;;8.11;86.38
72055;BME280;59936;51.490;5.436;2024-02-21T01:49:20;102003.06;;;8.21;86.34
72055;BME280;59936;51.490;5.436;2024-02-21T01:51:48;102004.88;;;8.10;86.40
72055;BME280;59936;51.490;5.436;2024-02-21T01:54:16;101991.53;;;8.10;86.31
72055;BME280;59936;51.490;5.436;2024-02-21T01:56:46;102002.34;;;8.08;86.52
72055;BME280;59936;51.490;5.436;2024-02-21T01:59:15;101996.63;;;8.13;85.97
72055;BME280;59936;51.490;5.436;2024-02-21T02:01:46;101997.84;;;8.09;86.35
72055;BME280;59936;51.490;5.436;2024-02-21T02:04:13;101988.84;;;8.21;86.07
72055;BME280;59936;51.490;5.436;2024-02-21T02:06:41;101993.34;;;8.20;85.68
72055;BME280;59936;51.490;5.436;2024-02-21T02:09:08;102001.97;;;8.13;85.56
72055;BME280;59936;51.490;5.436;2024-02-21T02:11:35;101998.81;;;8.19;85.69
72055;BME280;59936;51.490;5.436;2024-02-21T02:14:02;101996.13;;;8.19;85.16
72055;BME280;59936;51.490;5.436;2024-02-21T02:16:29;101982.06;;;8.17;85.43
72055;BME280;59936;51.490;5.436;2024-02-21T02:18:56;101969.19;;;8.11;85.68
72055;BME280;59936;51.490;5.436;2024-02-21T02:21:29;101969.19;;;8.11;85.68
72055;BME280;59936;51.490;5.436;2024-02-21T02:24:05;101973.06;;;8.07;85.88
72055;BME280;59936;51.490;5.436;2024-02-21T02:26:33;101976.00;;;8.04;85.85
72055;BME280;59936;51.490;5.436;2024-02-21T02:29:01;101968.81;;;8.04;85.93
72055;BME280;59936;51.490;5.436;2024-02-21T02:31:28;101958.66;;;7.98;85.85
72055;BME280;59936;51.490;5.436;2024-02-21T02:33:55;101954.00;;;8.11;85.38
72055;BME280;59936;51.490;5.436;2024-02-21T02:36:22;101954.00;;;8.11;85.38
72055;BME280;59936;51.490;5.436;2024-02-21T02:38:49;101942.72;;;8.08;85.35
72055;BME280;59936;51.490;5.436;2024-02-21T02:41:16;101946.38;;;8.07;85.53
72055;BME280;59936;51.490;5.436;2024-02-21T02:43:43;101939.44;;;8.15;85.02
72055;BME280;59936;51.490;5.436;2024-02-21T02:46:09;101940.03;;;8.19;85.06
72055;BME280;59936;51.490;5.436;2024-02-21T02:48:36;101945.88;;;8.13;85.26
72055;BME280;59936;51.490;5.436;2024-02-21T02:51:03;101945.88;;;8.13;85.26
72055;BME280;59936;51.490;5.436;2024-02-21T02:53:30;101931.53;;;8.14;85.17
72055;BME280;59936;51.490;5.436;2024-02-21T02:55:57;101922.44;;;8.05;85.40
72055;BME280;59936;51.490;5.436;2024-02-21T02:58:24;101913.63;;;7.94;85.42
72055;BME280;59936;51.490;5.436;2024-02-21T03:00:51;101928.19;;;7.89;85.67
72055;BME280;59936;51.490;5.436;2024-02-21T03:03:17;101929.00;;;8.01;85.67
72055;BME280;59936;51.490;5.436;2024-02-21T03:05:45;101922.75;;;7.91;85.39
72055;BME280;59936;51.490;5.436;2024-02-21T03:08:12;101913.16;;;7.88;85.64
72055;BME280;59936;51.490;5.436;2024-02-21T03:10:39;101923.34;;;7.83;85.62
72055;BME280;59936;51.490;5.436;2024-02-21T03:13:06;101923.34;;;7.83;85.62
72055;BME280;59936;51.490;5.436;2024-02-21T03:15:33;101920.19;;;7.89;85.20
72055;BME280;59936;51.490;5.436;2024-02-21T03:18:00;101918.13;;;7.93;85.24
72055;BME280;59936;51.490;5.436;2024-02-21T03:20:27;101918.13;;;7.93;85.24
72055;BME280;59936;51.490;5.436;2024-02-21T03:22:54;101909.03;;;7.96;85.06
72055;BME280;59936;51.490;5.436;2024-02-21T03:25:21;101897.69;;;8.03;84.57
72055;BME280;59936;51.490;5.436;2024-02-21T03:27:47;101903.75;;;8.05;84.82
72055;BME280;59936;51.490;5.436;2024-02-21T03:30:14;101895.84;;;8.15;84.15
72055;BME280;59936;51.490;5.436;2024-02-21T03:32:41;101899.75;;;8.11;84.16
72055;BME280;59936;51.490;5.436;2024-02-21T03:35:08;101886.13;;;8.14;83.96
72055;BME280;59936;51.490;5.436;2024-02-21T03:37:35;101886.13;;;8.14;83.96
72055;BME280;59936;51.490;5.436;2024-02-21T03:40:02;101886.13;;;8.14;83.73
72055;BME280;59936;51.490;5.436;2024-02-21T03:42:37;101866.59;;;8.13;83.70
72055;BME280;59936;51.490;5.436;2024-02-21T03:45:05;101862.88;;;8.25;84.01
72055;BME280;59936;51.490;5.436;2024-02-21T03:47:32;101859.88;;;8.19;83.63
72055;BME280;59936;51.490;5.436;2024-02-21T03:49:59;101861.13;;;8.15;83.88
72055;BME280;59936;51.490;5.436;2024-02-21T03:52:26;101857.84;;;8.11;83.95
72055;BME280;59936;51.490;5.436;2024-02-21T03:54:53;101856.53;;;8.06;84.35
72055;BME280;59936;51.490;5.436;2024-02-21T03:57:20;101859.41;;;8.14;84.14
72055;BME280;59936;51.490;5.436;2024-02-21T03:59:50;101854.13;;;8.23;83.70
72055;BME280;59936;51.490;5.436;2024-02-21T04:02:17;101855.53;;;8.18;83.92
72055;BME280;59936;51.490;5.436;2024-02-21T04:04:44;101850.38;;;8.26;83.68
72055;BME280;59936;51.490;5.436;2024-02-21T04:07:15;101852.78;;;8.29;83.63
72055;BME280;59936;51.490;5.436;2024-02-21T04:09:41;101851.16;;;8.17;83.80
72055;BME280;59936;51.490;5.436;2024-02-21T04:12:08;101843.25;;;8.15;84.15
72055;BME280;59936;51.490;5.436;2024-02-21T04:14:35;101841.94;;;8.10;84.01
72055;BME280;59936;51.490;5.436;2024-02-21T04:17:02;101853.47;;;8.10;84.01
72055;BME280;59936;51.490;5.436;2024-02-21T04:19:29;101857.47;;;8.16;83.96
72055;BME280;59936;51.490;5.436;2024-02-21T04:21:56;101854.53;;;8.19;84.50
72055;BME280;59936;51.490;5.436;2024-02-21T04:24:23;101853.34;;;8.12;84.10
72055;BME280;59936;51.490;5.436;2024-02-21T04:26:49;101847.41;;;8.08;84.28
72055;BME280;59936;51.490;5.436;2024-02-21T04:29:16;101855.78;;;8.15;84.51
72055;BME280;59936;51.490;5.436;2024-02-21T04:31:43;101855.78;;;8.15;84.51
72055;BME280;59936;51.490;5.436;2024-02-21T04:34:10;101853.84;;;8.06;85.00
72055;BME280;59936;51.490;5.436;2024-02-21T04:36:37;101854.53;;;8.19;84.51
72055;BME280;59936;51.490;5.436;2024-02-21T04:39:04;101847.28;;;8.10;84.97
72055;BME280;59936;51.490;5.436;2024-02-21T04:41:31;101848.00;;;8.12;85.09
72055;BME280;59936;51.490;5.436;2024-02-21T04:43:57;101845.72;;;8.07;85.12
72055;BME280;59936;51.490;5.436;2024-02-21T04:46:24;101836.72;;;8.08;85.00
72055;BME280;59936;51.490;5.436;2024-02-21T04:48:51;101844.03;;;8.06;85.19
72055;BME280;59936;51.490;5.436;2024-02-21T04:51:18;101837.13;;;8.24;84.25
72055;BME280;59936;51.490;5.436;2024-02-21T04:53:45;101837.31;;;8.12;84.96
72055;BME280;59936;51.490;5.436;2024-02-21T04:56:12;101834.03;;;8.19;84.72
72055;BME280;59936;51.490;5.436;2024-02-21T04:58:39;101835.75;;;8.09;85.14
72055;BME280;59936;51.490;5.436;2024-02-21T05:01:06;101827.25;;;8.15;84.91
72055;BME280;59936;51.490;5.436;2024-02-21T05:03:33;101832.97;;;8.11;85.14
72055;BME280;59936;51.490;5.436;2024-02-21T05:06:00;101827.50;;;8.12;85.12
72055;BME280;59936;51.490;5.436;2024-02-21T05:08:27;101823.00;;;8.13;84.81
72055;BME280;59936;51.490;5.436;2024-02-21T05:10:54;101821.69;;;8.28;84.74
72055;BME280;59936;51.490;5.436;2024-02-21T05:13:21;101809.03;;;8.09;85.17
72055;BME280;59936;51.490;5.436;2024-02-21T05:15:48;101812.19;;;8.14;85.00
72055;BME280;59936;51.490;5.436;2024-02-21T05:18:15;101811.97;;;8.06;85.07
72055;BME280;59936;51.490;5.436;2024-02-21T05:20:41;101810.16;;;8.07;85.30
72055;BME280;59936;51.490;5.436;2024-02-21T05:23:08;101808.69;;;8.03;85.34
72055;BME280;59936;51.490;5.436;2024-02-21T05:25:35;101800.56;;;8.04;85.31
72055;BME280;59936;51.490;5.436;2024-02-21T05:28:02;101798.31;;;8.20;84.70
72055;BME280;59936;51.490;5.436;2024-02-21T05:30:29;101785.38;;;8.05;84.85
72055;BME280;59936;51.490;5.436;2024-02-21T05:32:56;101781.31;;;8.01;85.13
72055;BME280;59936;51.490;5.436;2024-02-21T05:35:27;101779.59;;;8.00;85.29
72055;BME280;59936;51.490;5.436;2024-02-21T05:37:54;101773.84;;;8.04;85.13
72055;BME280;59936;51.490;5.436;2024-02-21T05:40:21;101768.97;;;8.09;85.01
72055;BME280;59936;51.490;5.436;2024-02-21T05:42:48;101777.63;;;8.02;85.14
72055;BME280;59936;51.490;5.436;2024-02-21T05:45:15;101774.56;;;8.06;85.28
72055;BME280;59936;51.490;5.436;2024-02-21T05:47:42;101766.91;;;8.13;84.56
72055;BME280;59936;51.490;5.436;2024-02-21T05:50:09;101768.78;;;8.01;85.01
72055;BME280;59936;51.490;5.436;2024-02-21T05:52:36;101771.78;;;8.08;85.21
72055;BME280;59936;51.490;5.436;2024-02-21T05:55:03;101766.31;;;8.09;85.22
72055;BME280;59936;51.490;5.436;2024-02-21T05:57:32;101765.94;;;8.14;85.19
72055;BME280;59936;51.490;5.436;2024-02-21T05:59:59;101756.25;;;8.02;85.15
72055;BME280;59936;51.490;5.436;2024-02-21T06:02:28;101753.75;;;8.00;85.16
72055;BME280;59936;51.490;5.436;2024-02-21T06:04:55;101758.81;;;8.03;85.57
72055;BME280;59936;51.490;5.436;2024-02-21T06:07:22;101757.53;;;7.98;85.35
72055;BME280;59936;51.490;5.436;2024-02-21T06:09:49;101753.41;;;7.94;85.66
72055;BME280;59936;51.490;5.436;2024-02-21T06:12:16;101745.75;;;8.00;85.62
72055;BME280;59936;51.490;5.436;2024-02-21T06:14:43;101733.63;;;7.96;85.71
72055;BME280;59936;51.490;5.436;2024-02-21T06:17:10;101730.81;;;7.98;86.01
72055;BME280;59936;51.490;5.436;2024-02-21T06:19:39;101730.81;;;7.98;86.01
72055;BME280;59936;51.490;5.436;2024-02-21T06:22:09;101719.34;;;7.86;85.96
72055;BME280;59936;51.490;5.436;2024-02-21T06:24:36;101725.78;;;7.83;86.00
72055;BME280;59936;51.490;5.436;2024-02-21T06:27:06;101720.69;;;7.80;86.07
72055;BME280;59936;51.490;5.436;2024-02-21T06:29:33;101726.72;;;7.94;85.70
72055;BME280;59936;51.490;5.436;2024-02-21T06:32:01;101730.75;;;8.09;85.22
72055;BME280;59936;51.490;5.436;2024-02-21T06:34:28;101726.13;;;7.90;85.52
72055;BME280;59936;51.490;5.436;2024-02-21T06:36:55;101727.09;;;7.89;85.92
72055;BME280;59936;51.490;5.436;2024-02-21T06:39:22;101728.66;;;7.91;85.67
72055;BME280;59936;51.490;5.436;2024-02-21T06:41:49;101722.34;;;7.93;85.73
72055;BME280;59936;51.490;5.436;2024-02-21T06:44:18;101729.00;;;7.98;85.63
72055;BME280;59936;51.490;5.436;2024-02-21T06:46:45;101725.41;;;8.09;85.13
72055;BME280;59936;51.490;5.436;2024-02-21T06:49:12;101739.69;;;7.98;85.08
72055;BME280;59936;51.490;5.436;2024-02-21T06:51:38;101732.78;;;7.96;85.29
72055;BME280;59936;51.490;5.436;2024-02-21T06:54:05;101732.19;;;7.92;85.41
72055;BME280;59936;51.490;5.436;2024-02-21T06:56:32;101735.19;;;7.99;85.38
72055;BME280;59936;51.490;5.436;2024-02-21T06:58:59;101737.97;;;7.97;85.40
72055;BME280;59936;51.490;5.436;2024-02-21T07:01:26;101739.81;;;7.97;85.35
72055;BME280;59936;51.490;5.436;2024-02-21T07:03:53;101728.59;;;8.03;84.77
72055;BME280;59936;51.490;5.436;2024-02-21T07:06:20;101734.91;;;8.02;85.16
72055;BME280;59936;51.490;5.436;2024-02-21T07:08:47;101723.25;;;8.03;85.11
72055;BME280;59936;51.490;5.436;2024-02-21T07:11:13;101724.09;;;8.03;85.09
72055;BME280;59936;51.490;5.436;2024-02-21T07:13:41;101718.38;;;8.08;84.91
72055;BME280;59936;51.490;5.436;2024-02-21T07:16:08;101722.69;;;7.99;85.17
72055;BME280;59936;51.490;5.436;2024-02-21T07:18:34;101720.19;;;8.07;85.07
72055;BME280;59936;51.490;5.436;2024-02-21T07:21:01;101715.31;;;8.12;84.40
72055;BME280;59936;51.490;5.436;2024-02-21T07:23:28;101715.31;;;8.12;84.40
72055;BME280;59936;51.490;5.436;2024-02-21T07:25:55;101708.41;;;8.10;84.79
72055;BME280;59936;51.490;5.436;2024-02-21T07:28:22;101707.75;;;8.17;84.68
72055;BME280;59936;51.490;5.436;2024-02-21T07:30:49;101713.03;;;8.08;84.77
72055;BME280;59936;51.490;5.436;2024-02-21T07:33:16;101711.91;;;8.10;85.29
72055;BME280;59936;51.490;5.436;2024-02-21T07:35:43;101701.34;;;8.09;85.14
72055;BME280;59936;51.490;5.436;2024-02-21T07:38:09;101701.34;;;8.09;85.14
72055;BME280;59936;51.490;5.436;2024-02-21T07:40:36;101692.81;;;8.15;85.32
72055;BME280;59936;51.490;5.436;2024-02-21T07:43:03;101689.97;;;8.07;85.14
72055;BME280;59936;51.490;5.436;2024-02-21T07:45:30;101679.28;;;8.07;85.07
72055;BME280;59936;51.490;5.436;2024-02-21T07:47:57;101680.97;;;8.08;85.12
72055;BME280;59936;51.490;5.436;2024-02-21T07:50:24;101674.41;;;8.12;85.07
72055;BME280;59936;51.490;5.436;2024-02-21T07:52:51;101670.75;;;8.13;85.05
72055;BME280;59936;51.490;5.436;2024-02-21T07:55:17;101656.41;;;8.14;85.22
72055;BME280;59936;51.490;5.436;2024-02-21T07:57:44;101648.28;;;8.15;85.08
72055;BME280;59936;51.490;5.436;2024-02-21T08:00:11;101644.50;;;8.18;84.91
72055;BME280;59936;51.490;5.436;2024-02-21T08:02:39;101645.72;;;8.35;84.86
72055;BME280;59936;51.490;5.436;2024-02-21T08:05:05;101642.53;;;8.20;84.53
72055;BME280;59936;51.490;5.436;2024-02-21T08:07:33;101646.75;;;8.22;84.73
72055;BME280;59936;51.490;5.436;2024-02-21T08:09:59;101650.66;;;8.39;84.35
72055;BME280;59936;51.490;5.436;2024-02-21T08:12:26;101638.44;;;8.46;84.54
72055;BME280;59936;51.490;5.436;2024-02-21T08:14:54;101640.69;;;8.41;83.87
72055;BME280;59936;51.490;5.436;2024-02-21T08:17:20;101626.34;;;8.42;83.64
72055;BME280;59936;51.490;5.436;2024-02-21T08:19:47;101629.16;;;8.50;83.77
72055;BME280;59936;51.490;5.436;2024-02-21T08:22:14;101616.56;;;8.72;83.22
72055;BME280;59936;51.490;5.436;2024-02-21T08:24:41;101619.63;;;8.57;83.04
72055;BME280;59936;51.490;5.436;2024-02-21T08:27:08;101611.44;;;8.49;83.12
72055;BME280;59936;51.490;5.436;2024-02-21T08:29:35;101602.88;;;8.55;83.68
72055;BME280;59936;51.490;5.436;2024-02-21T08:32:02;101599.91;;;8.49;83.41
72055;BME280;59936;51.490;5.436;2024-02-21T08:34:29;101594.13;;;8.44;83.11
72055;BME280;59936;51.490;5.436;2024-02-21T08:36:56;101586.66;;;8.47;83.57
72055;BME280;59936;51.490;5.436;2024-02-21T08:39:23;101585.88;;;8.56;83.22
72055;BME280;59936;51.490;5.436;2024-02-21T08:41:49;101582.38;;;8.66;83.45
72055;BME280;59936;51.490;5.436;2024-02-21T08:44:16;101582.38;;;8.66;83.45
72055;BME280;59936;51.490;5.436;2024-02-21T08:46:43;101585.63;;;8.98;82.75
72055;BME280;59936;51.490;5.436;2024-02-21T08:49:10;101585.63;;;8.98;82.75
72055;BME280;59936;51.490;5.436;2024-02-21T08:51:37;101572.38;;;8.77;82.16
72055;BME280;59936;51.490;5.436;2024-02-21T08:54:04;101559.03;;;8.77;82.79
72055;BME280;59936;51.490;5.436;2024-02-21T08:56:31;101565.34;;;8.76;83.17
72055;BME280;59936;51.490;5.436;2024-02-21T08:58:58;101556.22;;;8.79;83.15
72055;BME280;59936;51.490;5.436;2024-02-21T09:01:26;101556.22;;;8.79;83.36
72055;BME280;59936;51.490;5.436;2024-02-21T09:03:53;101546.78;;;8.75;83.85
72055;BME280;59936;51.490;5.436;2024-02-21T09:06:20;101545.66;;;8.77;83.85
72055;BME280;59936;51.490;5.436;2024-02-21T09:08:47;101540.56;;;8.55;85.00
72055;BME280;59936;51.490;5.436;2024-02-21T09:11:14;101546.19;;;8.52;85.58
72055;BME280;59936;51.490;5.436;2024-02-21T09:13:41;101546.72;;;8.46;86.11
72055;BME280;59936;51.490;5.436;2024-02-21T09:16:08;101542.78;;;8.50;86.18
72055;BME280;59936;51.490;5.436;2024-02-21T09:18:35;101543.00;;;8.27;87.71
72055;BME280;59936;51.490;5.436;2024-02-21T09:21:01;101537.06;;;8.24;87.79
72055;BME280;59936;51.490;5.436;2024-02-21T09:23:28;101540.72;;;8.23;88.36
72055;BME280;59936;51.490;5.436;2024-02-21T09:25:55;101537.38;;;8.21;88.59
72055;BME280;59936;51.490;5.436;2024-02-21T09:28:22;101540.19;;;8.29;87.86
72055;BME280;59936;51.490;5.436;2024-02-21T09:30:49;101529.22;;;8.22;88.33
72055;BME280;59936;51.490;5.436;2024-02-21T09:33:16;101532.28;;;8.18;88.92
72055;BME280;59936;51.490;5.436;2024-02-21T09:35:43;101532.28;;;8.18;88.60
72055;BME280;59936;51.490;5.436;2024-02-21T09:38:10;101535.94;;;8.17;88.41
72055;BME280;59936;51.490;5.436;2024-02-21T09:40:38;101524.03;;;8.31;87.36
72055;BME280;59936;51.490;5.436;2024-02-21T09:43:05;101510.16;;;8.37;87.28
72055;BME280;59936;51.490;5.436;2024-02-21T09:45:33;101505.38;;;8.40;86.81
72055;BME280;59936;51.490;5.436;2024-02-21T09:51:02;101487.66;;;8.49;86.17
72055;BME280;59936;51.490;5.436;2024-02-21T09:53:32;101478.78;;;8.48;85.95
72055;BME280;59936;51.490;5.436;2024-02-21T09:56:07;101472.88;;;8.45;86.19
72055;BME280;59936;51.490;5.436;2024-02-21T09:58:35;101473.59;;;8.56;85.16
72055;BME280;59936;51.490;5.436;2024-02-21T10:01:02;101465.75;;;8.65;85.48
72055;BME280;59936;51.490;5.436;2024-02-21T10:03:29;101459.25;;;8.67;85.00
72055;BME280;59936;51.490;5.436;2024-02-21T10:05:56;101447.16;;;8.82;84.49
72055;BME280;59936;51.490;5.436;2024-02-21T10:08:23;101443.75;;;8.90;83.88
72055;BME280;59936;51.490;5.436;2024-02-21T10:10:50;101443.22;;;8.86;82.54
72055;BME280;59936;51.490;5.436;2024-02-21T10:13:27;101429.66;;;9.07;82.05
72055;BME280;59936;51.490;5.436;2024-02-21T10:16:05;101426.38;;;9.13;81.87
72055;BME280;59936;51.490;5.436;2024-02-21T10:18:34;101411.25;;;9.32;82.27
72055;BME280;59936;51.490;5.436;2024-02-21T10:21:04;101410.16;;;9.24;79.90
72055;BME280;59936;51.490;5.436;2024-02-21T10:23:43;101399.63;;;9.23;79.68
72055;BME280;59936;51.490;5.436;2024-02-21T10:26:16;101395.81;;;9.25;79.20
72055;BME280;59936;51.490;5.436;2024-02-21T10:28:46;101375.53;;;9.23;79.59
72055;BME280;59936;51.490;5.436;2024-02-21T10:31:25;101372.16;;;9.21;79.30
72055;BME280;59936;51.490;5.436;2024-02-21T10:33:57;101373.91;;;9.40;80.17
72055;BME280;59936;51.490;5.436;2024-02-21T10:36:26;101368.00;;;9.36;78.24
72055;BME280;59936;51.490;5.436;2024-02-21T10:38:53;101349.22;;;9.46;78.04
72055;BME280;59936;51.490;5.436;2024-02-21T10:41:21;101338.78;;;9.52;78.30
72055;BME280;59936;51.490;5.436;2024-02-21T10:43:50;101327.44;;;9.58;77.36
72055;BME280;59936;51.490;5.436;2024-02-21T10:46:20;101312.53;;;9.56;76.99
72055;BME280;59936;51.490;5.436;2024-02-21T10:48:59;101307.31;;;9.54;76.77
72055;BME280;59936;51.490;5.436;2024-02-21T10:51:37;101293.44;;;9.69;76.81
72055;BME280;59936;51.490;5.436;2024-02-21T10:57:02;101291.47;;;9.71;76.00
72055;BME280;59936;51.490;5.436;2024-02-21T10:59:32;101294.19;;;9.79;76.88
72055;BME280;59936;51.490;5.436;2024-02-21T11:02:00;101305.25;;;9.93;76.62
72055;BME280;59936;51.490;5.436;2024-02-21T11:04:27;101299.56;;;9.96;76.33
72055;BME280;59936;51.490;5.436;2024-02-21T11:06:57;101310.22;;;9.88;75.96
72055;BME280;59936;51.490;5.436;2024-02-21T11:09:30;101299.19;;;9.91;75.56
72055;BME280;59936;51.490;5.436;2024-02-21T11:12:02;101305.28;;;9.66;76.08
72055;BME280;59936;51.490;5.436;2024-02-21T11:14:31;101309.25;;;9.62;75.93
72055;BME280;59936;51.490;5.436;2024-02-21T11:16:58;101288.47;;;9.74;76.00
72055;BME280;59936;51.490;5.436;2024-02-21T11:19:27;101297.81;;;9.87;75.22
72055;BME280;59936;51.490;5.436;2024-02-21T11:21:56;101284.16;;;9.98;76.55
72055;BME280;59936;51.490;5.436;2024-02-21T11:24:33;101279.31;;;9.94;75.12
72055;BME280;59936;51.490;5.436;2024-02-21T11:27:12;101263.81;;;10.06;75.45
72055;BME280;59936;51.490;5.436;2024-02-21T11:32:20;101255.09;;;10.21;75.82
72055;BME280;59936;51.490;5.436;2024-02-21T11:34:54;101234.56;;;10.30;74.18
72055;BME280;59936;51.490;5.436;2024-02-21T11:37:33;101227.75;;;10.70;74.54
72055;BME280;59936;51.490;5.436;2024-02-21T11:40:01;101221.59;;;10.77;72.66
72055;BME280;59936;51.490;5.436;2024-02-21T11:42:30;101238.38;;;10.79;72.19
72055;BME280;59936;51.490;5.436;2024-02-21T11:44:57;101234.44;;;10.65;72.35
72055;BME280;59936;51.490;5.436;2024-02-21T11:47:28;101220.09;;;10.49;72.57
72055;BME280;59936;51.490;5.436;2024-02-21T11:49:55;101220.16;;;10.31;72.63
72055;BME280;59936;51.490;5.436;2024-02-21T11:52:23;101224.53;;;10.32;74.25
72055;BME280;59936;51.490;5.436;2024-02-21T11:54:52;101209.69;;;10.20;73.40
72055;BME280;59936;51.490;5.436;2024-02-21T11:57:20;101179.06;;;10.48;74.18
72055;BME280;59936;51.490;5.436;2024-02-21T11:59:47;101171.41;;;10.61;72.34
72055;BME280;59936;51.490;5.436;2024-02-21T12:02:14;101151.03;;;10.85;71.21
72055;BME280;59936;51.490;5.436;2024-02-21T12:04:42;101152.72;;;10.86;72.28
72055;BME280;59936;51.490;5.436;2024-02-21T12:07:10;101143.75;;;11.03;70.39
72055;BME280;59936;51.490;5.436;2024-02-21T12:09:37;101135.03;;;11.17;70.99
72055;BME280;59936;51.490;5.436;2024-02-21T12:12:07;101140.44;;;11.25;70.80
72055;BME280;59936;51.490;5.436;2024-02-21T12:14:35;101126.34;;;11.40;71.09
72055;BME280;59936;51.490;5.436;2024-02-21T12:17:02;101129.03;;;11.56;70.77
72055;BME280;59936;51.490;5.436;2024-02-21T12:19:30;101117.13;;;11.42;68.95
72055;BME280;59936;51.490;5.436;2024-02-21T12:21:59;101090.09;;;11.03;69.75
72055;BME280;59936;51.490;5.436;2024-02-21T12:24:28;101090.09;;;11.03;69.75
72055;BME280;59936;51.490;5.436;2024-02-21T12:26:56;101097.63;;;11.16;70.06
72055;BME280;59936;51.490;5.436;2024-02-21T12:29:23;101086.75;;;11.33;70.96
72055;BME280;59936;51.490;5.436;2024-02-21T12:31:51;101078.84;;;11.32;70.09
72055;BME280;59936;51.490;5.436;2024-02-21T12:34:18;101077.34;;;11.54;71.22
72055;BME280;59936;51.490;5.436;2024-02-21T12:36:45;101062.25;;;11.45;70.80
72055;BME280;59936;51.490;5.436;2024-02-21T12:39:12;101057.03;;;11.03;69.49
72055;BME280;59936;51.490;5.436;2024-02-21T12:41:40;101055.03;;;11.13;70.26
72055;BME280;59936;51.490;5.436;2024-02-21T12:44:08;101047.81;;;11.13;69.98
72055;BME280;59936;51.490;5.436;2024-02-21T12:46:37;101029.72;;;11.23;70.47
72055;BME280;59936;51.490;5.436;2024-02-21T12:49:04;101026.69;;;10.94;70.46
72055;BME280;59936;51.490;5.436;2024-02-21T12:51:31;101013.28;;;11.02;71.08
72055;BME280;59936;51.490;5.436;2024-02-21T12:53:58;101001.50;;;10.87;70.92
72055;BME280;59936;51.490;5.436;2024-02-21T12:56:26;100999.84;;;10.78;71.22
72055;BME280;59936;51.490;5.436;2024-02-21T12:58:53;100980.72;;;10.89;71.94
72055;BME280;59936;51.490;5.436;2024-02-21T13:01:20;100992.78;;;10.85;71.54
72055;BME280;59936;51.490;5.436;2024-02-21T13:03:47;100975.88;;;10.92;72.14
72055;BME280;59936;51.490;5.436;2024-02-21T13:06:14;100966.66;;;11.03;72.01
72055;BME280;59936;51.490;5.436;2024-02-21T13:08:41;100967.31;;;11.05;71.57
72055;BME280;59936;51.490;5.436;2024-02-21T13:11:08;100966.84;;;11.02;71.12
72055;BME280;59936;51.490;5.436;2024-02-21T13:13:35;100980.09;;;11.03;70.60